Time;durP1;ratioP1;P1;durP2;ratioP2;P2;SDS_P1;SDS_P2;PMS_P1;PMS_P2;Temp;Humidity;BMP_temperature;BMP_pressure;BME280_temperature;BME280_humidity;BME280_pressure;Samples;Min_cycle;Max_cycle;Signal;HPM_P1;HPM_P2
2022/01/03 00:00:16;;;;;;;39.90;28.13;;;4.70;99.90;;;;;;5038333;28;20044;-79
2022/01/03 00:02:43;;;;;;;38.63;25.10;;;4.70;99.90;;;;;;5022809;28;20103;-79
2022/01/03 00:05:10;;;;;;;38.20;26.02;;;4.70;99.90;;;;;;5011494;28;20038;-79
2022/01/03 00:07:41;;;;;;;34.92;24.52;;;4.90;99.90;;;;;;5027418;28;20013;-79
2022/01/03 00:10:09;;;;;;;27.90;20.27;;;5.00;99.90;;;;;;5013245;28;20038;-79
2022/01/03 00:12:36;;;;;;;29.13;20.80;;;5.30;99.90;;;;;;5027303;28;20021;-78
2022/01/03 00:15:05;;;;;;;29.88;20.45;;;5.50;99.90;;;;;;5038139;28;20090;-78
2022/01/03 00:17:32;;;;;;;24.50;19.27;;;5.70;99.90;;;;;;5042270;28;20033;-79
2022/01/03 00:19:58;;;;;;;28.33;18.65;;;5.90;99.90;;;;;;5016248;28;20037;-79
2022/01/03 00:22:27;;;;;;;24.90;17.52;;;6.00;99.90;;;;;;5048451;28;20017;-79
2022/01/03 00:25:08;;;;;;;23.88;17.90;;;6.10;99.90;;;;;;5032061;28;20041;-78
2022/01/03 00:28:02;;;;;;;25.15;17.63;;;6.20;99.90;;;;;;5026943;28;20558;-78
2022/01/03 00:30:37;;;;;;;27.83;18.35;;;6.30;99.90;;;;;;5032971;28;20029;-78
2022/01/03 00:33:11;;;;;;;26.15;17.70;;;6.40;99.90;;;;;;5013634;28;20026;-79
2022/01/03 00:35:46;;;;;;;22.90;17.05;;;6.50;99.90;;;;;;5031849;28;20040;-78
2022/01/03 00:38:14;;;;;;;23.33;16.73;;;6.50;99.90;;;;;;5030724;28;20024;-79
2022/01/03 00:40:46;;;;;;;26.40;16.23;;;6.50;99.90;;;;;;5034308;28;20029;-78
2022/01/03 00:43:18;;;;;;;25.73;17.10;;;6.50;99.90;;;;;;5015009;28;20125;-78
2022/01/03 00:45:44;;;;;;;28.45;16.98;;;6.50;99.90;;;;;;5035508;28;20032;-78
2022/01/03 00:48:13;;;;;;;22.77;15.32;;;6.50;99.90;;;;;;5009439;28;20389;-79
2022/01/03 00:50:51;;;;;;;24.88;17.02;;;6.50;99.90;;;;;;5030139;28;20036;-78
2022/01/03 00:53:23;;;;;;;22.52;16.42;;;6.60;99.90;;;;;;5018091;28;20045;-79
2022/01/03 00:56:13;;;;;;;22.33;16.02;;;6.60;99.90;;;;;;5015264;28;20476;-78
2022/01/03 00:59:00;;;;;;;21.70;15.90;;;6.60;99.90;;;;;;5010010;28;20095;-79
2022/01/03 01:01:38;;;;;;;18.55;15.10;;;6.70;99.90;;;;;;5044583;28;20036;-79
2022/01/03 01:04:12;;;;;;;25.30;17.05;;;6.80;99.90;;;;;;5036081;28;20098;-79
2022/01/03 01:06:40;;;;;;;23.98;15.80;;;6.80;99.90;;;;;;5025178;28;20037;-79
2022/01/03 01:09:09;;;;;;;26.30;15.60;;;6.90;99.90;;;;;;4999456;28;20045;-79
2022/01/03 01:11:42;;;;;;;21.75;15.43;;;6.90;99.90;;;;;;5010424;28;20465;-78
2022/01/03 01:14:17;;;;;;;21.65;16.30;;;7.00;99.90;;;;;;5028073;28;20033;-78
2022/01/03 01:16:43;;;;;;;20.23;15.25;;;7.10;99.90;;;;;;5043017;28;20029;-78
2022/01/03 01:19:11;;;;;;;21.95;14.85;;;7.10;99.90;;;;;;5037679;28;20032;-78
2022/01/03 01:21:52;;;;;;;20.35;14.93;;;7.10;99.90;;;;;;5030095;28;20030;-78
2022/01/03 01:24:24;;;;;;;23.50;15.87;;;7.20;99.90;;;;;;5024309;28;20072;-81
2022/01/03 01:29:37;;;;;;;24.05;15.82;;;7.40;99.90;;;;;;5028517;28;20067;-80
2022/01/03 01:32:21;;;;;;;19.58;15.27;;;7.40;99.90;;;;;;5039320;28;20040;-78
2022/01/03 01:34:49;;;;;;;23.00;14.63;;;7.40;99.90;;;;;;5012254;28;20385;-80
2022/01/03 01:37:19;;;;;;;20.40;14.43;;;7.50;99.90;;;;;;5042927;28;20082;-80
2022/01/03 01:39:48;;;;;;;27.02;15.85;;;7.50;99.90;;;;;;5034082;28;20439;-79
2022/01/03 01:42:22;;;;;;;21.17;15.30;;;7.50;99.90;;;;;;5030034;28;20051;-79
2022/01/03 01:44:53;;;;;;;20.50;15.70;;;7.50;99.90;;;;;;5037096;28;20057;-79
2022/01/03 01:47:22;;;;;;;24.95;16.38;;;7.60;99.90;;;;;;5026177;28;20022;-78
2022/01/03 01:50:24;;;;;;;23.77;17.00;;;7.60;99.90;;;;;;5027254;28;20143;-78
2022/01/03 01:53:17;;;;;;;27.00;16.75;;;7.70;99.90;;;;;;4996922;28;20042;-78
2022/01/03 01:59:06;;;;;;;;;;;7.80;99.90;;;;;;4977302;28;20070;-79
2022/01/03 02:02:38;;;;;;;;;;;;;;;;;;;;;
2022/01/03 02:05:07;;;;;;;24.75;15.98;;;7.90;99.90;;;;;;5036054;28;20071;-78
2022/01/03 02:27:32;;;;;;;26.98;18.10;;;8.10;99.90;;;;;;5029562;28;20079;-78
2022/01/03 02:32:59;;;;;;;29.33;19.92;;;8.20;99.90;;;;;;4953574;28;20039;-80
2022/01/03 02:36:15;;;;;;;35.40;21.05;;;8.30;99.90;;;;;;5033882;28;20040;-78
2022/01/03 02:39:18;;;;;;;29.67;20.63;;;8.30;99.90;;;;;;5032770;28;20028;-78
2022/01/03 02:43:01;;;;;;;34.33;19.80;;;8.40;99.90;;;;;;5030887;28;20025;-78
2022/01/03 02:55:56;;;;;;;31.25;20.33;;;8.50;99.90;;;;;;4953649;28;20066;-78
2022/01/03 03:02:27;;;;;;;31.58;21.52;;;8.60;99.90;;;;;;4957438;28;20616;-79
2022/01/03 03:09:14;;;;;;;;;;;;;;;;;;;;;
2022/01/03 03:22:21;;;;;;;28.20;17.98;;;8.30;99.90;;;;;;4856070;29;20051;-79
2022/01/03 03:28:54;;;;;;;26.08;18.10;;;8.20;99.90;;;;;;4761241;30;20040;-78
2022/01/03 03:32:23;;;;;;;26.33;19.38;;;8.20;99.90;;;;;;4809624;29;20082;-78
2022/01/03 03:35:44;;;;;;;30.58;22.50;;;8.30;99.90;;;;;;4792766;29;20133;-78
2022/01/03 03:42:19;;;;;;;31.08;22.33;;;8.30;99.90;;;;;;4875171;29;20575;-78
2022/01/03 04:01:39;;;;;;;30.10;21.92;;;8.70;99.90;;;;;;4954310;28;20437;-78
2022/01/03 04:05:01;;;;;;;32.58;23.13;;;8.80;99.90;;;;;;4938398;28;20045;-78
2022/01/03 04:08:06;;;;;;;39.15;24.48;;;8.80;99.90;;;;;;4961891;28;20046;-79
2022/01/03 04:10:38;;;;;;;36.00;24.58;;;8.80;99.90;;;;;;4963147;28;20034;-81
2022/01/03 04:13:27;;;;;;;34.13;24.67;;;8.90;99.90;;;;;;4953681;28;20482;-78
2022/01/03 04:16:58;;;;;;;34.92;23.73;;;8.90;99.90;;;;;;4964229;28;20569;-78
2022/01/03 04:30:15;;;;;;;38.67;23.35;;;9.00;99.90;;;;;;4903575;29;20036;-78
2022/01/03 04:36:05;;;;;;;38.88;25.50;;;9.00;99.90;;;;;;4936444;29;20070;-79
2022/01/03 04:38:32;;;;;;;36.65;25.55;;;9.10;99.90;;;;;;4953400;28;20375;-80
2022/01/03 04:40:59;;;;;;;35.92;24.05;;;9.10;99.90;;;;;;5034669;28;20026;-80
2022/01/03 04:43:25;;;;;;;39.00;25.20;;;9.10;99.90;;;;;;5030883;28;20136;-80
2022/01/03 04:45:51;;;;;;;34.65;24.98;;;9.10;99.90;;;;;;5031187;28;20112;-80
2022/01/03 04:48:17;;;;;;;43.10;27.00;;;9.10;99.90;;;;;;5033245;28;20040;-80
2022/01/03 04:50:43;;;;;;;37.92;25.02;;;9.10;99.90;;;;;;5031829;28;20091;-80
2022/01/03 04:53:09;;;;;;;46.00;27.33;;;9.10;99.90;;;;;;5031143;28;20468;-80
2022/01/03 04:55:35;;;;;;;42.13;27.40;;;9.10;99.90;;;;;;5016891;28;20030;-80
2022/01/03 04:58:01;;;;;;;41.88;27.35;;;9.00;99.90;;;;;;5012336;28;20057;-79
2022/01/03 05:00:27;;;;;;;42.72;26.98;;;9.00;99.90;;;;;;5037759;28;20029;-80
2022/01/03 05:02:55;;;;;;;38.60;27.67;;;9.10;99.90;;;;;;5010678;28;20029;-80
2022/01/03 05:05:22;;;;;;;44.05;28.33;;;9.10;99.90;;;;;;5031755;28;20181;-80
2022/01/03 05:07:48;;;;;;;45.50;28.17;;;9.20;99.90;;;;;;5011455;28;20026;-80
2022/01/03 05:10:14;;;;;;;41.00;25.98;;;9.20;99.90;;;;;;5036693;28;20487;-80
2022/01/03 05:12:40;;;;;;;51.40;29.52;;;9.20;99.90;;;;;;5022509;28;20388;-80
2022/01/03 05:15:06;;;;;;;49.40;29.95;;;9.20;99.90;;;;;;5028424;28;20030;-79
2022/01/03 05:17:32;;;;;;;49.63;31.45;;;9.20;99.90;;;;;;5031149;28;20028;-79
2022/01/03 05:19:58;;;;;;;53.25;31.20;;;9.00;99.90;;;;;;5038528;28;20044;-80
2022/01/03 05:22:25;;;;;;;41.60;29.25;;;8.90;99.90;;;;;;5038122;28;20143;-80
2022/01/03 05:24:51;;;;;;;51.55;30.92;;;8.80;99.90;;;;;;5035929;28;20403;-80
2022/01/03 05:27:20;;;;;;;45.17;29.40;;;8.80;99.90;;;;;;5034898;28;20027;-79
2022/01/03 05:29:46;;;;;;;50.05;30.35;;;8.80;99.90;;;;;;5035675;28;20021;-79
2022/01/03 05:32:12;;;;;;;50.70;31.08;;;8.80;99.90;;;;;;5034918;28;20024;-80
2022/01/03 05:34:38;;;;;;;48.88;30.58;;;8.80;99.90;;;;;;5033975;28;20084;-80
2022/01/03 05:37:03;;;;;;;45.15;29.52;;;8.80;99.90;;;;;;5045750;28;20029;-80
2022/01/03 05:39:29;;;;;;;48.03;28.02;;;8.90;99.90;;;;;;5038466;28;20048;-80
2022/01/03 05:41:55;;;;;;;46.03;29.40;;;9.00;99.90;;;;;;5035615;28;20033;-78
2022/01/03 05:44:30;;;;;;;50.05;29.33;;;9.00;99.90;;;;;;5037208;28;20072;-77
2022/01/03 05:46:59;;;;;;;42.78;27.35;;;9.10;99.90;;;;;;5036495;28;20017;-78
2022/01/03 05:49:28;;;;;;;48.25;28.95;;;9.10;99.90;;;;;;5016615;28;20057;-78
2022/01/03 05:52:03;;;;;;;42.25;27.83;;;9.20;99.90;;;;;;5035572;28;20022;-78
2022/01/03 05:54:29;;;;;;;41.90;26.83;;;9.20;99.90;;;;;;5036302;28;20395;-78
2022/01/03 05:56:58;;;;;;;39.78;26.90;;;9.20;99.90;;;;;;5033571;28;20036;-78
2022/01/03 05:59:24;;;;;;;43.40;27.73;;;9.20;99.90;;;;;;5035136;28;20037;-78
2022/01/03 06:01:55;;;;;;;42.03;27.30;;;9.20;99.90;;;;;;5036645;28;20142;-78
2022/01/03 06:04:24;;;;;;;45.15;29.10;;;9.20;99.90;;;;;;5033452;28;20037;-78
2022/01/03 06:07:05;;;;;;;46.50;29.42;;;9.20;99.90;;;;;;5043269;28;20025;-78
2022/01/03 06:09:32;;;;;;;47.83;30.13;;;9.30;99.90;;;;;;5032844;28;20029;-78
2022/01/03 06:12:35;;;;;;;51.42;30.83;;;9.20;99.90;;;;;;5020718;28;20030;-78
2022/01/03 06:15:02;;;;;;;45.97;29.75;;;9.20;99.90;;;;;;5015398;28;20111;-78
2022/01/03 06:17:28;;;;;;;49.72;30.38;;;9.30;99.90;;;;;;5033630;28;20116;-78
2022/01/03 06:19:54;;;;;;;45.47;30.05;;;9.30;99.90;;;;;;5015722;28;20034;-78
2022/01/03 06:22:34;;;;;;;43.35;29.20;;;9.30;99.90;;;;;;5044911;28;20348;-78
2022/01/03 06:25:09;;;;;;;45.90;30.15;;;9.30;99.90;;;;;;5034107;28;20049;-78
2022/01/03 06:27:41;;;;;;;46.65;29.52;;;9.30;99.90;;;;;;5028275;28;20045;-78
2022/01/03 06:30:12;;;;;;;42.38;28.60;;;9.30;99.90;;;;;;5031559;28;20377;-78
2022/01/03 06:32:38;;;;;;;44.03;27.85;;;9.40;99.90;;;;;;5034644;28;20030;-78
2022/01/03 06:35:10;;;;;;;40.42;28.63;;;9.40;99.90;;;;;;5034139;28;20021;-78
2022/01/03 06:37:36;;;;;;;46.35;31.52;;;9.40;99.90;;;;;;5031956;28;20041;-78
2022/01/03 06:40:04;;;;;;;50.92;35.63;;;9.40;99.90;;;;;;5037521;28;20037;-78
2022/01/03 06:42:30;;;;;;;50.60;34.67;;;9.20;99.90;;;;;;5038966;28;20032;-80
2022/01/03 06:45:05;;;;;;;53.75;35.47;;;9.00;99.90;;;;;;5034107;28;20630;-81
2022/01/03 06:47:31;;;;;;;51.35;35.25;;;8.90;99.90;;;;;;5032448;28;20029;-79
2022/01/03 06:50:04;;;;;;;55.50;36.75;;;8.80;99.90;;;;;;5035061;28;20036;-79
2022/01/03 06:52:30;;;;;;;64.22;36.83;;;8.70;99.90;;;;;;5038142;28;20033;-79
2022/01/03 06:54:55;;;;;;;60.88;37.75;;;8.70;99.90;;;;;;5040436;28;20399;-80
2022/01/03 06:57:21;;;;;;;51.88;34.72;;;8.70;99.90;;;;;;5052049;28;20052;-79
2022/01/03 06:59:48;;;;;;;55.03;34.15;;;8.90;99.90;;;;;;5039838;28;20032;-79
2022/01/03 07:02:14;;;;;;;56.85;37.03;;;8.90;99.90;;;;;;5035609;28;20095;-79
2022/01/03 07:04:40;;;;;;;58.00;38.42;;;9.00;99.90;;;;;;5033590;28;20124;-79
2022/01/03 07:07:06;;;;;;;62.60;37.63;;;9.00;99.90;;;;;;5014151;28;20087;-78
2022/01/03 07:09:32;;;;;;;61.50;37.30;;;9.00;99.90;;;;;;5032062;28;20021;-80
2022/01/03 07:11:58;;;;;;;56.53;36.90;;;9.00;99.90;;;;;;5042869;28;20021;-78
2022/01/03 07:19:40;;;;;;;60.47;38.28;;;8.90;99.90;;;;;;5045081;28;20036;-78
2022/01/03 07:22:11;;;;;;;56.47;37.00;;;9.00;99.90;;;;;;5038421;28;20120;-78
2022/01/03 07:24:39;;;;;;;64.22;37.67;;;9.00;99.90;;;;;;5033753;28;20112;-78
2022/01/03 07:27:08;;;;;;;60.40;39.88;;;9.00;99.90;;;;;;5029642;28;20052;-78
2022/01/03 07:29:34;;;;;;;62.13;40.65;;;9.00;99.90;;;;;;5046883;28;20021;-78
2022/01/03 07:32:00;;;;;;;63.08;42.28;;;8.90;99.90;;;;;;5046712;28;20030;-78
2022/01/03 07:34:27;;;;;;;68.57;41.55;;;8.90;99.90;;;;;;5040002;28;20029;-78
2022/01/03 07:36:53;;;;;;;64.32;42.33;;;8.90;99.90;;;;;;5051228;28;20052;-78
2022/01/03 07:39:19;;;;;;;67.45;40.33;;;8.90;99.90;;;;;;5036443;28;20126;-78
2022/01/03 07:41:45;;;;;;;61.70;41.63;;;9.00;99.90;;;;;;5032650;28;20171;-78
2022/01/03 07:44:11;;;;;;;65.70;41.38;;;9.00;99.90;;;;;;5015243;28;20550;-78
2022/01/03 07:46:37;;;;;;;63.53;41.67;;;9.00;99.90;;;;;;5030556;28;20108;-78
2022/01/03 07:49:03;;;;;;;64.10;41.22;;;9.00;99.90;;;;;;5030654;28;20062;-77
2022/01/03 07:51:29;;;;;;;66.25;39.55;;;9.00;99.90;;;;;;5013323;28;20501;-77
2022/01/03 07:53:55;;;;;;;67.55;40.53;;;9.00;99.90;;;;;;5015787;28;20102;-78
2022/01/03 07:56:21;;;;;;;67.68;41.47;;;9.10;99.90;;;;;;5048492;28;20021;-77
2022/01/03 07:58:47;;;;;;;68.88;40.47;;;9.10;99.90;;;;;;5049284;28;20029;-77
2022/01/03 08:01:13;;;;;;;65.38;41.70;;;9.10;99.90;;;;;;5032862;28;20029;-77
2022/01/03 08:03:39;;;;;;;77.90;44.53;;;9.10;99.90;;;;;;5013418;28;20104;-77
2022/01/03 08:06:07;;;;;;;85.40;44.63;;;9.00;99.90;;;;;;5033110;28;20480;-78
2022/01/03 08:08:33;;;;;;;73.05;43.50;;;9.00;99.90;;;;;;5030554;28;20032;-77
2022/01/03 08:11:02;;;;;;;73.97;45.95;;;9.00;99.90;;;;;;5032050;28;20030;-77
2022/01/03 08:13:28;;;;;;;76.60;46.38;;;9.00;99.90;;;;;;5051404;28;20433;-78
2022/01/03 08:15:54;;;;;;;70.18;43.78;;;9.00;99.90;;;;;;5045018;28;20552;-78
2022/01/03 08:18:20;;;;;;;82.80;46.20;;;9.00;99.90;;;;;;5047073;28;20017;-78
2022/01/03 08:20:46;;;;;;;77.75;45.63;;;9.00;99.90;;;;;;5044687;28;20032;-77
2022/01/03 08:23:11;;;;;;;78.75;46.88;;;9.00;99.90;;;;;;5030444;28;20428;-77
2022/01/03 08:25:38;;;;;;;87.80;48.85;;;9.10;99.90;;;;;;5040066;28;20442;-77
2022/01/03 08:28:08;;;;;;;79.25;47.40;;;9.10;99.90;;;;;;5030738;28;20669;-79
2022/01/03 08:30:35;;;;;;;80.53;46.75;;;9.00;99.90;;;;;;5033237;28;20049;-79
2022/01/03 08:33:03;;;;;;;85.50;48.72;;;9.10;99.90;;;;;;5031575;28;20082;-77
2022/01/03 08:35:29;;;;;;;74.55;42.67;;;9.00;99.90;;;;;;5042806;28;20115;-80
2022/01/03 08:37:56;;;;;;;72.50;40.92;;;9.10;99.90;;;;;;5050662;28;20127;-80
2022/01/03 08:40:23;;;;;;;67.18;41.50;;;9.10;99.90;;;;;;5031292;28;20422;-79
2022/01/03 08:42:51;;;;;;;69.47;38.90;;;9.10;99.90;;;;;;5030836;28;20033;-79
2022/01/03 08:45:17;;;;;;;54.10;35.88;;;9.10;99.90;;;;;;5013500;28;20026;-80
2022/01/03 08:47:43;;;;;;;61.92;36.22;;;9.10;99.90;;;;;;5011615;28;20026;-79
2022/01/03 08:50:10;;;;;;;58.72;35.58;;;9.10;99.90;;;;;;5012072;28;20030;-79
2022/01/03 08:52:36;;;;;;;57.20;34.90;;;9.10;99.90;;;;;;5010722;28;20021;-79
2022/01/03 08:55:03;;;;;;;68.15;42.13;;;9.20;99.90;;;;;;5012192;28;20032;-80
2022/01/03 08:57:29;;;;;;;67.65;43.28;;;9.40;99.90;;;;;;5014219;28;20476;-77
2022/01/03 09:00:03;;;;;;;66.00;42.40;;;9.50;99.90;;;;;;5003659;28;20029;-78
2022/01/03 09:02:38;;;;;;;70.38;43.20;;;9.60;99.90;;;;;;5022846;28;20080;-77
2022/01/03 09:05:04;;;;;;;68.70;44.80;;;9.60;99.90;;;;;;5003209;28;20463;-80
2022/01/03 09:07:30;;;;;;;65.28;41.65;;;9.70;99.90;;;;;;5024228;28;20021;-80
2022/01/03 09:09:56;;;;;;;65.28;41.05;;;9.70;99.90;;;;;;5028706;28;20033;-80
2022/01/03 09:12:21;;;;;;;66.55;39.90;;;9.70;99.90;;;;;;5016582;28;20033;-78
2022/01/03 09:14:47;;;;;;;65.18;40.17;;;9.70;99.90;;;;;;5025100;28;20108;-78
2022/01/03 09:17:13;;;;;;;69.82;40.80;;;9.70;99.90;;;;;;5019841;28;20457;-80
2022/01/03 09:19:39;;;;;;;63.25;39.28;;;9.70;99.90;;;;;;5019884;28;20029;-80
2022/01/03 09:22:16;;;;;;;66.10;40.58;;;9.70;99.90;;;;;;5021111;28;20071;-79
2022/01/03 09:30:07;;;;;;;62.63;40.38;;;9.70;99.90;;;;;;5026643;28;20404;-80
2022/01/03 09:32:33;;;;;;;59.38;39.80;;;9.70;99.90;;;;;;5017894;28;20026;-79
2022/01/03 09:35:00;;;;;;;85.95;45.65;;;9.60;99.90;;;;;;5026036;28;20022;-80
2022/01/03 09:37:26;;;;;;;72.93;45.45;;;9.50;99.90;;;;;;5023320;28;20105;-80
2022/01/03 09:39:52;;;;;;;79.75;45.30;;;9.50;99.90;;;;;;5023965;28;20116;-80
2022/01/03 09:42:28;;;;;;;67.07;45.35;;;9.60;99.90;;;;;;5010680;28;20035;-80
2022/01/03 09:44:56;;;;;;;74.18;46.95;;;9.60;99.90;;;;;;5030763;28;20103;-80
2022/01/03 09:47:23;;;;;;;79.65;46.63;;;9.60;99.90;;;;;;5053392;28;20017;-79
2022/01/03 09:49:49;;;;;;;87.03;50.05;;;9.60;99.90;;;;;;5041558;28;20071;-80
2022/01/03 09:52:19;;;;;;;92.15;49.72;;;9.60;99.90;;;;;;5032568;28;20021;-80
2022/01/03 09:54:46;;;;;;;94.60;53.35;;;9.60;99.90;;;;;;5034936;28;20541;-80
2022/01/03 09:57:13;;;;;;;86.70;52.30;;;9.60;99.90;;;;;;5037295;28;20021;-81
2022/01/03 09:59:40;;;;;;;83.70;49.47;;;9.60;99.90;;;;;;5021659;28;20021;-80
2022/01/03 10:02:06;;;;;;;84.35;49.50;;;9.60;99.90;;;;;;5041539;28;20361;-80
2022/01/03 10:04:32;;;;;;;79.57;51.50;;;9.70;99.90;;;;;;5035357;28;20041;-80
2022/01/03 10:06:59;;;;;;;97.72;59.88;;;9.70;99.90;;;;;;5041813;28;20399;-80
2022/01/03 10:09:25;;;;;;;85.38;53.97;;;9.70;99.90;;;;;;5033311;28;20029;-80
2022/01/03 10:11:52;;;;;;;98.30;54.72;;;9.60;99.90;;;;;;5034425;28;20475;-78
2022/01/03 10:14:18;;;;;;;91.55;53.38;;;9.60;99.90;;;;;;5034979;28;20108;-78
2022/01/03 10:16:49;;;;;;;101.88;56.58;;;9.60;99.90;;;;;;5034317;28;20053;-78
2022/01/03 10:19:15;;;;;;;99.47;57.45;;;9.50;99.90;;;;;;5033092;28;20021;-79
2022/01/03 10:21:48;;;;;;;129.25;65.07;;;9.40;99.90;;;;;;5033908;28;20071;-79
2022/01/03 10:24:30;;;;;;;265.25;70.97;;;9.30;99.90;;;;;;5034435;28;20584;-78
2022/01/03 10:26:56;;;;;;;215.43;70.68;;;9.10;99.90;;;;;;5034101;28;20079;-78
2022/01/03 10:29:32;;;;;;;253.30;71.65;;;8.80;99.90;;;;;;5034530;28;20033;-78
2022/01/03 10:32:00;;;;;;;182.02;68.75;;;8.70;99.90;;;;;;5033328;28;20518;-78
2022/01/03 10:34:27;;;;;;;210.73;70.68;;;8.70;99.90;;;;;;5033570;28;20498;-78
2022/01/03 10:36:57;;;;;;;213.98;70.55;;;8.70;99.90;;;;;;5034060;28;20029;-78
2022/01/03 10:39:37;;;;;;;242.02;70.97;;;8.60;99.90;;;;;;5034373;28;20037;-78
2022/01/03 10:42:18;;;;;;;206.20;71.50;;;8.60;99.90;;;;;;5051203;28;20024;-78
2022/01/03 10:44:45;;;;;;;201.10;67.47;;;8.60;99.90;;;;;;5029011;28;20459;-78
2022/01/03 10:47:16;;;;;;;212.20;69.45;;;8.60;99.90;;;;;;5013546;28;20052;-78
2022/01/03 10:49:48;;;;;;;288.75;70.63;;;8.60;99.90;;;;;;5014736;28;20033;-78
2022/01/03 10:52:22;;;;;;;251.73;70.30;;;8.60;99.90;;;;;;5012918;28;20033;-78
2022/01/03 10:55:07;;;;;;;257.77;71.70;;;8.50;99.90;;;;;;5014979;28;20030;-78
2022/01/03 10:57:58;;;;;;;244.90;67.35;;;8.50;99.90;;;;;;4993083;28;20032;-78
2022/01/03 11:00:46;;;;;;;256.20;71.72;;;8.50;99.90;;;;;;5020361;28;20038;-80
2022/01/03 11:03:29;;;;;;;284.95;68.25;;;8.50;99.90;;;;;;4992900;28;20389;-80
2022/01/03 11:06:01;;;;;;;257.13;70.90;;;8.40;99.90;;;;;;5010453;28;20048;-80
2022/01/03 11:11:15;;;;;;;246.68;72.03;;;8.40;99.90;;;;;;5034590;28;20400;-80
2022/01/03 11:13:47;;;;;;;285.92;71.75;;;8.40;99.90;;;;;;5020032;28;20033;-80
2022/01/03 11:16:13;;;;;;;271.15;72.57;;;8.40;99.90;;;;;;5016743;28;20022;-80
2022/01/03 11:18:47;;;;;;;264.75;76.10;;;8.40;99.90;;;;;;5012362;28;20033;-80
2022/01/03 11:21:16;;;;;;;233.23;72.03;;;8.50;99.90;;;;;;5019143;28;20030;-80
2022/01/03 11:23:45;;;;;;;230.45;70.45;;;8.50;99.90;;;;;;5021582;28;20160;-80
2022/01/03 11:26:20;;;;;;;228.35;72.13;;;8.50;99.90;;;;;;4995605;28;20416;-80
2022/01/03 11:28:48;;;;;;;212.18;74.07;;;8.60;99.90;;;;;;4994954;28;20026;-78
2022/01/03 11:31:16;;;;;;;205.73;66.15;;;8.70;99.90;;;;;;5021050;28;20014;-78
2022/01/03 11:33:42;;;;;;;185.13;67.05;;;8.70;99.90;;;;;;5012674;28;20021;-78
2022/01/03 11:36:08;;;;;;;191.73;68.82;;;8.80;99.90;;;;;;4999689;28;20463;-80
2022/01/03 11:38:40;;;;;;;190.77;67.75;;;8.80;99.90;;;;;;5031852;28;20104;-80
2022/01/03 11:41:08;;;;;;;170.18;62.95;;;8.90;99.90;;;;;;5029169;28;20034;-78
2022/01/03 11:43:42;;;;;;;163.27;61.78;;;9.10;99.90;;;;;;5031365;28;20041;-78
2022/01/03 11:46:09;;;;;;;142.00;59.30;;;9.30;99.90;;;;;;5007476;28;20066;-78
2022/01/03 11:48:38;;;;;;;141.27;56.53;;;9.50;99.90;;;;;;5031440;28;20043;-78
2022/01/03 11:51:07;;;;;;;136.23;59.03;;;9.60;99.90;;;;;;5027972;28;20033;-78
2022/01/03 11:53:42;;;;;;;156.40;63.08;;;9.70;99.90;;;;;;5031503;28;20102;-78
2022/01/03 11:56:13;;;;;;;155.38;61.72;;;9.60;99.90;;;;;;5028307;28;20026;-78
2022/01/03 11:59:00;;;;;;;155.57;59.27;;;9.40;99.90;;;;;;5012992;28;20029;-78
2022/01/03 12:04:27;;;;;;;149.52;59.47;;;9.40;99.90;;;;;;5012443;28;20053;-78
2022/01/03 12:07:10;;;;;;;149.32;59.28;;;9.50;99.90;;;;;;4995224;28;20112;-78
2022/01/03 12:09:39;;;;;;;151.95;61.10;;;9.50;99.90;;;;;;5012805;28;20034;-78
2022/01/03 12:12:09;;;;;;;165.45;59.42;;;9.50;99.90;;;;;;5030241;28;20066;-78
2022/01/03 12:14:46;;;;;;;143.75;58.78;;;9.60;99.90;;;;;;5020968;28;20104;-78
2022/01/03 12:17:14;;;;;;;165.95;73.20;;;9.60;99.90;;;;;;5012596;28;20032;-78
2022/01/03 12:19:46;;;;;;;176.82;70.70;;;9.70;99.90;;;;;;5022089;28;20033;-78
2022/01/03 12:22:23;;;;;;;157.65;63.78;;;9.70;99.90;;;;;;5004800;28;20022;-77
2022/01/03 12:24:56;;;;;;;142.88;60.53;;;9.70;99.90;;;;;;5017792;28;20511;-80
2022/01/03 12:27:25;;;;;;;151.07;69.65;;;9.80;99.90;;;;;;5030843;28;20025;-80
2022/01/03 12:29:57;;;;;;;132.68;59.97;;;9.80;99.90;;;;;;5027576;28;20514;-80
2022/01/03 12:32:40;;;;;;;122.63;54.75;;;9.80;99.90;;;;;;5012226;28;20018;-80
2022/01/03 12:35:18;;;;;;;119.32;55.13;;;9.80;99.90;;;;;;5027053;28;20029;-78
2022/01/03 12:37:50;;;;;;;134.02;57.95;;;9.80;99.90;;;;;;5030752;28;20032;-78
2022/01/03 12:40:30;;;;;;;123.88;55.35;;;9.80;99.90;;;;;;5018907;28;20041;-80
2022/01/03 12:43:07;;;;;;;136.32;59.03;;;9.80;99.90;;;;;;4994974;28;20033;-80
2022/01/03 12:45:32;;;;;;;131.20;59.20;;;9.80;99.90;;;;;;5030073;28;20746;-80
2022/01/03 12:48:11;;;;;;;118.20;57.17;;;9.80;99.90;;;;;;5031144;28;20105;-80
2022/01/03 12:50:44;;;;;;;128.35;57.08;;;9.90;99.90;;;;;;5011555;28;20040;-80
2022/01/03 12:53:29;;;;;;;136.70;59.33;;;10.00;99.90;;;;;;5032535;28;20029;-80
2022/01/03 12:55:55;;;;;;;154.35;64.35;;;9.90;99.90;;;;;;5046301;28;20025;-81
2022/01/03 12:58:24;;;;;;;150.30;63.47;;;9.70;99.90;;;;;;5050830;28;20448;-78
2022/01/03 13:00:51;;;;;;;149.43;60.35;;;9.60;99.90;;;;;;5046738;28;20051;-78
2022/01/03 13:03:52;;;;;;;140.93;61.00;;;9.60;99.90;;;;;;5048931;28;20033;-78
2022/01/03 13:06:25;;;;;;;134.18;59.13;;;9.70;99.90;;;;;;5025418;28;20029;-78
2022/01/03 13:08:54;;;;;;;134.77;57.53;;;9.80;99.90;;;;;;5048759;28;20103;-78
2022/01/03 13:11:23;;;;;;;126.78;57.38;;;9.80;99.90;;;;;;5029228;28;20017;-78
2022/01/03 13:13:51;;;;;;;119.38;58.45;;;9.90;99.90;;;;;;5030938;28;20302;-77
2022/01/03 13:16:28;;;;;;;135.77;58.63;;;9.90;99.90;;;;;;5048035;28;20028;-78
2022/01/03 13:18:55;;;;;;;176.63;68.18;;;9.70;99.90;;;;;;5048405;28;20029;-80
2022/01/03 13:21:22;;;;;;;160.88;67.70;;;9.50;99.90;;;;;;5030601;28;20380;-81
2022/01/03 13:23:57;;;;;;;173.45;68.60;;;9.40;99.90;;;;;;5031033;28;20365;-80
2022/01/03 13:26:24;;;;;;;189.52;74.03;;;9.30;99.90;;;;;;5031949;28;20025;-80
2022/01/03 13:28:52;;;;;;;202.32;75.93;;;9.10;99.90;;;;;;5030668;28;20116;-80
2022/01/03 13:31:19;;;;;;;201.68;76.20;;;9.00;99.90;;;;;;5030616;28;20078;-80
2022/01/03 13:33:53;;;;;;;206.85;78.32;;;8.90;99.90;;;;;;5049098;28;20021;-82
2022/01/03 13:36:18;;;;;;;216.25;76.60;;;8.90;99.90;;;;;;5034847;28;20025;-80
2022/01/03 13:38:44;;;;;;;221.02;75.95;;;8.90;99.90;;;;;;5030087;28;20087;-80
2022/01/03 13:41:19;;;;;;;222.70;79.72;;;8.90;99.90;;;;;;5050394;28;20029;-79
2022/01/03 13:43:53;;;;;;;220.32;75.40;;;8.90;99.90;;;;;;5050301;28;20500;-80
2022/01/03 13:49:13;;;;;;;204.80;72.60;;;8.80;99.90;;;;;;5035711;28;20028;-79
2022/01/03 13:51:47;;;;;;;198.93;78.32;;;8.80;99.90;;;;;;5030377;28;20029;-80
2022/01/03 13:54:32;;;;;;;199.32;70.85;;;8.80;99.90;;;;;;5035312;28;20056;-81
2022/01/03 13:57:04;;;;;;;177.45;68.40;;;8.70;99.90;;;;;;5034850;28;20035;-81
2022/01/03 13:59:34;;;;;;;175.38;66.15;;;8.70;99.90;;;;;;5038461;28;20070;-79
2022/01/03 14:02:02;;;;;;;177.95;71.03;;;8.80;99.90;;;;;;5052930;28;20029;-80
2022/01/03 14:04:34;;;;;;;195.93;71.95;;;8.80;99.90;;;;;;5030570;28;20034;-79
2022/01/03 14:07:09;;;;;;;173.88;65.70;;;8.80;99.90;;;;;;5052530;28;20379;-79
2022/01/03 14:09:47;;;;;;;160.00;62.50;;;8.90;99.90;;;;;;5032524;28;20112;-77
2022/01/03 14:12:15;;;;;;;161.93;63.83;;;9.00;99.90;;;;;;5033993;28;20488;-80
2022/01/03 14:14:44;;;;;;;174.18;62.03;;;9.00;99.90;;;;;;5019327;28;20091;-79
2022/01/03 14:17:11;;;;;;;142.77;60.67;;;9.10;99.90;;;;;;5042054;28;20036;-80
2022/01/03 14:19:37;;;;;;;132.85;55.83;;;9.10;99.90;;;;;;5045717;28;20549;-80
2022/01/03 14:22:15;;;;;;;126.68;57.53;;;9.30;99.90;;;;;;5013189;28;20022;-81
2022/01/03 14:25:02;;;;;;;132.57;54.92;;;9.40;99.90;;;;;;5035683;28;20494;-81
2022/01/03 14:27:40;;;;;;;144.27;55.42;;;9.40;99.90;;;;;;5040788;28;20029;-81
2022/01/03 14:30:13;;;;;;;139.10;56.47;;;9.40;99.90;;;;;;5040449;28;20029;-81
2022/01/03 14:32:40;;;;;;;144.40;59.45;;;9.40;99.90;;;;;;5014206;28;20030;-81
2022/01/03 14:35:08;;;;;;;152.98;59.95;;;9.30;99.90;;;;;;5041273;28;20029;-84
2022/01/03 14:37:35;;;;;;;170.40;64.75;;;9.20;99.90;;;;;;5032790;28;20090;-81
2022/01/03 14:40:03;;;;;;;168.18;66.47;;;9.20;99.90;;;;;;5040754;28;20028;-79
2022/01/03 14:42:36;;;;;;;183.75;64.15;;;9.10;99.90;;;;;;5047148;28;20029;-80
2022/01/03 14:45:14;;;;;;;179.80;66.47;;;9.10;99.90;;;;;;5042563;28;20695;-80
2022/01/03 14:47:45;;;;;;;204.55;65.85;;;9.00;99.90;;;;;;5050913;28;20091;-79
2022/01/03 14:50:12;;;;;;;183.93;65.03;;;9.00;99.90;;;;;;5047812;28;20028;-80
2022/01/03 14:52:43;;;;;;;184.90;66.45;;;9.00;99.90;;;;;;5052143;28;20024;-79
2022/01/03 14:55:12;;;;;;;193.90;69.22;;;8.90;99.90;;;;;;5053807;28;20029;-79